WXM80 ListenWXM80 Stop

You find our weather info also at:

UK Metoffice

WeatherCloud

Weather Underground

Northeastern Weather Network

AWEKAS

Citizen Weather Observer Program (CWOP)

HAMweather, WeatherForYou, PWS Weather


Weather Underground History page Text

Daily Summary for March 7, 2018 Units:  Both    English   Metric
« Previous Day
Next Day »
Daily Weekly Monthly Yearly Custom
  High: Low: Average:
Temperature: 37.0 °F /  2.8 °C 32.9 °F /  0.5 °C 34.8 °F /  1.6 °C
Dew Point: 35.7 °F /  2.1 °C 30.7 °F /  -0.7 °C 33.5 °F /  0.8 °C
Humidity: 98 % 78 % 95 %
Wind Speed: 21.0 mph /  33.8 km/h - 9.1 mph /  14.6 km/h
Wind Gust: 31.0 mph /  49.9 km/h - -
Wind:- - ESE
Pressure: 29.74 in /  1007 hPa 29.24 in /  990.1 hPa -
Precipitation: 0.80 in /  20.32 mm    
Historical Graphs
 
 
Tabular Data for March 7, 2018
Time Temperature Dew Point Pressure Wind Wind Speed Wind Gust Humidity Rainfall Rate (Hourly)
00:00 36.9 °F /  2.7 °C 30.7 °F /  -0.7 °C 29.70 in /  1005.6 hPa ENE 2.2 mph /  3.5 km/h 5.8 mph /  9.3 km/h 78 % 0.00 in /  0 mm
00:05 36.9 °F /  2.7 °C 30.7 °F /  -0.7 °C 29.71 in /  1006 hPa East 2.2 mph /  3.5 km/h 4.6 mph /  7.4 km/h 78 % 0.00 in /  0 mm
00:10 36.9 °F /  2.7 °C 30.7 °F /  -0.7 °C 29.71 in /  1006 hPa East 1.3 mph /  2.1 km/h 4.6 mph /  7.4 km/h 78 % 0.00 in /  0 mm
00:15 37.0 °F /  2.8 °C 31.1 °F /  -0.5 °C 29.70 in /  1005.6 hPa ENE 5.4 mph /  8.7 km/h 9.2 mph /  14.8 km/h 79 % 0.00 in /  0 mm
00:20 36.9 °F /  2.7 °C 31.3 °F /  -0.4 °C 29.70 in /  1005.6 hPa ENE 4.3 mph /  6.9 km/h 7.0 mph /  11.3 km/h 80 % 0.00 in /  0 mm
00:25 36.9 °F /  2.7 °C 31.6 °F /  -0.2 °C 29.72 in /  1006.3 hPa ENE 5.0 mph /  8 km/h 9.2 mph /  14.8 km/h 81 % 0.00 in /  0 mm
00:30 36.8 °F /  2.7 °C 31.5 °F /  -0.3 °C 29.72 in /  1006.3 hPa ENE 5.2 mph /  8.4 km/h 6.9 mph /  11.1 km/h 81 % 0.00 in /  0 mm
00:35 36.8 °F /  2.7 °C 31.8 °F /  -0.1 °C 29.74 in /  1007 hPa East 4.7 mph /  7.6 km/h 6.0 mph /  9.7 km/h 82 % 0.00 in /  0 mm
00:40 36.7 °F /  2.6 °C 31.7 °F /  -0.2 °C 29.74 in /  1007 hPa East 3.8 mph /  6.1 km/h 6.0 mph /  9.7 km/h 82 % 0.00 in /  0 mm
00:45 36.6 °F /  2.6 °C 31.6 °F /  -0.2 °C 29.74 in /  1007 hPa East 3.3 mph /  5.3 km/h 4.6 mph /  7.4 km/h 82 % 0.00 in /  0 mm
00:50 36.6 °F /  2.6 °C 31.6 °F /  -0.2 °C 29.74 in /  1007 hPa East 3.7 mph /  6 km/h 5.8 mph /  9.3 km/h 82 % 0.00 in /  0 mm
00:55 36.4 °F /  2.4 °C 31.7 °F /  -0.2 °C 29.72 in /  1006.3 hPa East 3.6 mph /  5.8 km/h 4.6 mph /  7.4 km/h 83 % 0.00 in /  0 mm
01:00 36.3 °F /  2.4 °C 31.9 °F /  -0.1 °C 29.72 in /  1006.3 hPa East 4.9 mph /  7.9 km/h 6.0 mph /  9.7 km/h 84 % 0.00 in /  0 mm
01:05 36.2 °F /  2.3 °C 32.1 °F /  0.1 °C 29.71 in /  1006 hPa East 5.1 mph /  8.2 km/h 8.1 mph /  13 km/h 85 % 0.00 in /  0 mm
01:10 36.0 °F /  2.2 °C 32.2 °F /  0.1 °C 29.71 in /  1006 hPa East 5.7 mph /  9.2 km/h 10.0 mph /  16.1 km/h 86 % 0.00 in /  0 mm
01:15 35.8 °F /  2.1 °C 32.3 °F /  0.2 °C 29.70 in /  1005.6 hPa East 7.1 mph /  11.4 km/h 8.1 mph /  13 km/h 87 % 0.00 in /  0 mm
01:20 35.6 °F /  2 °C 32.1 °F /  0.1 °C 29.69 in /  1005.3 hPa East 7.6 mph /  12.2 km/h 9.2 mph /  14.8 km/h 87 % 0.00 in /  0 mm
01:25 35.5 °F /  1.9 °C 32.3 °F /  0.2 °C 29.69 in /  1005.3 hPa East 6.7 mph /  10.8 km/h 9.2 mph /  14.8 km/h 88 % 0.00 in /  0 mm
01:30 35.3 °F /  1.8 °C 32.4 °F /  0.2 °C 29.70 in /  1005.6 hPa East 6.0 mph /  9.7 km/h 9.2 mph /  14.8 km/h 89 % 0.00 in /  0 mm
01:36 35.3 °F /  1.8 °C 32.4 °F /  0.2 °C 29.70 in /  1005.6 hPa East 3.1 mph /  5 km/h 6.0 mph /  9.7 km/h 89 % 0.00 in /  0 mm
01:41 35.2 °F /  1.8 °C 32.6 °F /  0.3 °C 29.70 in /  1005.6 hPa East 6.0 mph /  9.7 km/h 8.0 mph /  12.9 km/h 90 % 0.00 in /  0 mm
01:46 35.2 °F /  1.8 °C 32.6 °F /  0.3 °C 29.71 in /  1006 hPa East 3.0 mph /  4.8 km/h 9.0 mph /  14.5 km/h 90 % 0.00 in /  0 mm
01:51 35.1 °F /  1.7 °C 32.5 °F /  0.3 °C 29.71 in /  1006 hPa East 2.0 mph /  3.2 km/h 6.0 mph /  9.7 km/h 90 % 0.00 in /  0 mm
01:56 35.0 °F /  1.7 °C 32.6 °F /  0.3 °C 29.71 in /  1006 hPa East 3.0 mph /  4.8 km/h 8.0 mph /  12.9 km/h 91 % 0.00 in /  0 mm
02:01 35.0 °F /  1.7 °C 32.6 °F /  0.3 °C 29.70 in /  1005.6 hPa East 4.4 mph /  7.1 km/h 6.9 mph /  11.1 km/h 91 % 0.00 in /  0 mm
02:06 35.0 °F /  1.7 °C 32.6 °F /  0.3 °C 29.69 in /  1005.3 hPa East 4.9 mph /  7.9 km/h 6.9 mph /  11.1 km/h 91 % 0.00 in /  0 mm
02:11 34.9 °F /  1.6 °C 32.8 °F /  0.4 °C 29.69 in /  1005.3 hPa East 5.1 mph /  8.2 km/h 7.0 mph /  11.3 km/h 92 % 0.00 in /  0 mm
02:16 34.8 °F /  1.6 °C 32.7 °F /  0.4 °C 29.69 in /  1005.3 hPa East 7.1 mph /  11.4 km/h 8.1 mph /  13 km/h 92 % 0.00 in /  0 mm
02:21 34.7 °F /  1.5 °C 32.6 °F /  0.3 °C 29.69 in /  1005.3 hPa East 7.2 mph /  11.6 km/h 10.4 mph /  16.7 km/h 92 % 0.00 in /  0 mm
02:26 34.6 °F /  1.4 °C 32.5 °F /  0.3 °C 29.69 in /  1005.3 hPa East 6.0 mph /  9.7 km/h 8.0 mph /  12.9 km/h 92 % 0.00 in /  0 mm
02:31 34.5 °F /  1.4 °C 32.4 °F /  0.2 °C 29.70 in /  1005.6 hPa East 5.0 mph /  8 km/h 5.8 mph /  9.3 km/h 92 % 0.00 in /  0 mm
02:36 34.4 °F /  1.3 °C 32.3 °F /  0.2 °C 29.70 in /  1005.6 hPa ENE 2.7 mph /  4.3 km/h 3.5 mph /  5.6 km/h 92 % 0.00 in /  0 mm
02:41 34.4 °F /  1.3 °C 32.6 °F /  0.3 °C 29.70 in /  1005.6 hPa East 5.9 mph /  9.5 km/h 7.0 mph /  11.3 km/h 93 % 0.00 in /  0 mm
02:46 34.3 °F /  1.3 °C 32.5 °F /  0.3 °C 29.70 in /  1005.6 hPa East 2.9 mph /  4.7 km/h 5.8 mph /  9.3 km/h 93 % 0.00 in /  0 mm
02:51 34.2 °F /  1.2 °C 32.4 °F /  0.2 °C 29.69 in /  1005.3 hPa ENE 3.2 mph /  5.1 km/h 4.6 mph /  7.4 km/h 93 % 0.00 in /  0 mm
02:56 34.2 °F /  1.2 °C 32.4 °F /  0.2 °C 29.69 in /  1005.3 hPa ENE 3.5 mph /  5.6 km/h 4.6 mph /  7.4 km/h 93 % 0.00 in /  0 mm
03:01 34.1 °F /  1.2 °C 32.3 °F /  0.2 °C 29.69 in /  1005.3 hPa ENE 3.8 mph /  6.1 km/h 5.8 mph /  9.3 km/h 93 % 0.00 in /  0 mm
03:07 34.1 °F /  1.2 °C 32.3 °F /  0.2 °C 29.68 in /  1005 hPa East 5.6 mph /  9 km/h 8.1 mph /  13 km/h 93 % 0.00 in /  0 mm
03:12 34.0 °F /  1.1 °C 32.2 °F /  0.1 °C 29.67 in /  1004.6 hPa East 6.6 mph /  10.6 km/h 8.1 mph /  13 km/h 93 % 0.00 in /  0 mm
03:17 33.9 °F /  1.1 °C 32.4 °F /  0.2 °C 29.67 in /  1004.6 hPa East 7.0 mph /  11.3 km/h 9.2 mph /  14.8 km/h 94 % 0.00 in /  0 mm
03:22 33.9 °F /  1.1 °C 32.4 °F /  0.2 °C 29.66 in /  1004.3 hPa East 7.5 mph /  12.1 km/h 8.1 mph /  13 km/h 94 % 0.00 in /  0 mm
03:27 33.8 °F /  1 °C 32.3 °F /  0.2 °C 29.67 in /  1004.6 hPa East 7.1 mph /  11.4 km/h 9.2 mph /  14.8 km/h 94 % 0.00 in /  0 mm
03:32 33.8 °F /  1 °C 32.3 °F /  0.2 °C 29.67 in /  1004.6 hPa East 7.1 mph /  11.4 km/h 9.2 mph /  14.8 km/h 94 % 0.00 in /  0 mm
03:37 33.8 °F /  1 °C 32.3 °F /  0.2 °C 29.68 in /  1005 hPa East 6.0 mph /  9.7 km/h 9.0 mph /  14.5 km/h 94 % 0.00 in /  0 mm
03:42 33.8 °F /  1 °C 32.5 °F /  0.3 °C 29.68 in /  1005 hPa East 5.1 mph /  8.2 km/h 8.1 mph /  13 km/h 95 % 0.00 in /  0 mm
03:47 33.7 °F /  0.9 °C 32.4 °F /  0.2 °C 29.67 in /  1004.6 hPa ENE 6.3 mph /  10.1 km/h 8.1 mph /  13 km/h 95 % 0.00 in /  0 mm
03:52 33.7 °F /  0.9 °C 32.4 °F /  0.2 °C 29.65 in /  1003.9 hPa East 5.7 mph /  9.2 km/h 8.1 mph /  13 km/h 95 % 0.00 in /  0 mm
03:57 33.8 °F /  1 °C 32.5 °F /  0.3 °C 29.67 in /  1004.6 hPa East 5.9 mph /  9.5 km/h 9.2 mph /  14.8 km/h 95 % 0.00 in /  0 mm
04:02 33.8 °F /  1 °C 32.5 °F /  0.3 °C 29.69 in /  1005.3 hPa ESE 4.3 mph /  6.9 km/h 8.1 mph /  13 km/h 95 % 0.00 in /  0 mm
04:07 33.8 °F /  1 °C 32.5 °F /  0.3 °C 29.68 in /  1005 hPa East 5.3 mph /  8.5 km/h 6.9 mph /  11.1 km/h 95 % 0.00 in /  0 mm
04:12 33.9 °F /  1.1 °C 32.6 °F /  0.3 °C 29.67 in /  1004.6 hPa East 5.3 mph /  8.5 km/h 8.1 mph /  13 km/h 95 % 0.00 in /  0 mm
04:17 33.9 °F /  1.1 °C 32.6 °F /  0.3 °C 29.67 in /  1004.6 hPa East 5.7 mph /  9.2 km/h 8.0 mph /  12.9 km/h 95 % 0.00 in /  0 mm
04:22 33.9 °F /  1.1 °C 32.6 °F /  0.3 °C 29.67 in /  1004.6 hPa East 6.7 mph /  10.8 km/h 9.2 mph /  14.8 km/h 95 % 0.00 in /  0 mm
04:28 33.9 °F /  1.1 °C 32.6 °F /  0.3 °C 29.66 in /  1004.3 hPa East 7.7 mph /  12.4 km/h 8.1 mph /  13 km/h 95 % 0.00 in /  0 mm
04:33 34.0 °F /  1.1 °C 32.7 °F /  0.4 °C 29.65 in /  1003.9 hPa East 7.9 mph /  12.7 km/h 10.4 mph /  16.7 km/h 95 % 0.00 in /  0 mm
04:38 34.1 °F /  1.2 °C 32.8 °F /  0.4 °C 29.65 in /  1003.9 hPa East 7.7 mph /  12.4 km/h 10.4 mph /  16.7 km/h 95 % 0.00 in /  0 mm
04:43 34.1 °F /  1.2 °C 32.8 °F /  0.4 °C 29.64 in /  1003.6 hPa East 8.2 mph /  13.2 km/h 10.4 mph /  16.7 km/h 95 % 0.00 in /  0 mm
04:48 34.2 °F /  1.2 °C 32.9 °F /  0.5 °C 29.63 in /  1003.3 hPa ENE 8.3 mph /  13.4 km/h 9.2 mph /  14.8 km/h 95 % 0.00 in /  0 mm
04:53 34.2 °F /  1.2 °C 33.2 °F /  0.7 °C 29.62 in /  1002.9 hPa ENE 6.9 mph /  11.1 km/h 9.2 mph /  14.8 km/h 96 % 0.00 in /  0 mm
04:58 34.3 °F /  1.3 °C 33.3 °F /  0.7 °C 29.63 in /  1003.3 hPa East 8.3 mph /  13.4 km/h 9.2 mph /  14.8 km/h 96 % 0.00 in /  0 mm
05:03 34.3 °F /  1.3 °C 33.3 °F /  0.7 °C 29.63 in /  1003.3 hPa ENE 6.6 mph /  10.6 km/h 10.4 mph /  16.7 km/h 96 % 0.00 in /  0 mm
05:08 34.3 °F /  1.3 °C 33.3 °F /  0.7 °C 29.63 in /  1003.3 hPa East 7.8 mph /  12.6 km/h 9.2 mph /  14.8 km/h 96 % 0.00 in /  0 mm
05:13 34.3 °F /  1.3 °C 33.3 °F /  0.7 °C 29.63 in /  1003.3 hPa East 7.7 mph /  12.4 km/h 9.2 mph /  14.8 km/h 96 % 0.00 in /  0 mm
05:18 34.3 °F /  1.3 °C 33.3 °F /  0.7 °C 29.64 in /  1003.6 hPa East 6.1 mph /  9.8 km/h 8.1 mph /  13 km/h 96 % 0.00 in /  0 mm
05:24 34.3 °F /  1.3 °C 33.3 °F /  0.7 °C 29.65 in /  1003.9 hPa East 6.6 mph /  10.6 km/h 9.2 mph /  14.8 km/h 96 % 0.00 in /  0 mm
05:27 34.3 °F /  1.3 °C 33.3 °F /  0.7 °C 29.64 in /  1003.6 hPa East 7.5 mph /  12.1 km/h 9.2 mph /  14.8 km/h 96 % 0.00 in /  0 mm
05:32 34.3 °F /  1.3 °C 33.3 °F /  0.7 °C 29.63 in /  1003.3 hPa ENE 7.0 mph /  11.3 km/h 8.1 mph /  13 km/h 96 % 0.00 in /  0 mm
05:37 34.3 °F /  1.3 °C 33.3 °F /  0.7 °C 29.63 in /  1003.3 hPa East 8.0 mph /  12.9 km/h 10.4 mph /  16.7 km/h 96 % 0.00 in /  0 mm
05:42 34.4 °F /  1.3 °C 33.4 °F /  0.8 °C 29.62 in /  1002.9 hPa East 6.4 mph /  10.3 km/h 11.0 mph /  17.7 km/h 96 % 0.00 in /  0 mm
05:47 34.4 °F /  1.3 °C 33.4 °F /  0.8 °C 29.62 in /  1002.9 hPa East 7.6 mph /  12.2 km/h 11.5 mph /  18.5 km/h 96 % 0.00 in /  0 mm
05:52 34.5 °F /  1.4 °C 33.5 °F /  0.8 °C 29.63 in /  1003.3 hPa East 6.8 mph /  10.9 km/h 9.2 mph /  14.8 km/h 96 % 0.00 in /  0 mm
05:57 34.5 °F /  1.4 °C 33.5 °F /  0.8 °C 29.63 in /  1003.3 hPa East 9.4 mph /  15.1 km/h 11.5 mph /  18.5 km/h 96 % 0.00 in /  0 mm
06:02 34.5 °F /  1.4 °C 33.5 °F /  0.8 °C 29.64 in /  1003.6 hPa East 8.5 mph /  13.7 km/h 10.4 mph /  16.7 km/h 96 % 0.00 in /  0 mm
06:07 34.5 °F /  1.4 °C 33.5 °F /  0.8 °C 29.63 in /  1003.3 hPa East 9.0 mph /  14.5 km/h 9.2 mph /  14.8 km/h 96 % 0.00 in /  0 mm
06:12 34.6 °F /  1.4 °C 33.6 °F /  0.9 °C 29.63 in /  1003.3 hPa East 7.3 mph /  11.7 km/h 10.4 mph /  16.7 km/h 96 % 0.00 in /  0 mm
06:17 34.6 °F /  1.4 °C 33.6 °F /  0.9 °C 29.63 in /  1003.3 hPa East 7.9 mph /  12.7 km/h 11.5 mph /  18.5 km/h 96 % 0.00 in /  0 mm
06:22 34.6 °F /  1.4 °C 33.6 °F /  0.9 °C 29.63 in /  1003.3 hPa East 8.0 mph /  12.9 km/h 11.5 mph /  18.5 km/h 96 % 0.00 in /  0 mm
06:27 34.6 °F /  1.4 °C 33.6 °F /  0.9 °C 29.63 in /  1003.3 hPa East 8.1 mph /  13 km/h 10.0 mph /  16.1 km/h 96 % 0.00 in /  0 mm
06:32 34.7 °F /  1.5 °C 33.7 °F /  0.9 °C 29.63 in /  1003.3 hPa East 6.0 mph /  9.7 km/h 9.2 mph /  14.8 km/h 96 % 0.00 in /  0 mm
06:37 34.7 °F /  1.5 °C 33.7 °F /  0.9 °C 29.63 in /  1003.3 hPa East 7.5 mph /  12.1 km/h 10.4 mph /  16.7 km/h 96 % 0.00 in /  0 mm
06:42 34.8 °F /  1.6 °C 33.8 °F /  1 °C 29.61 in /  1002.6 hPa East 8.6 mph /  13.8 km/h 9.2 mph /  14.8 km/h 96 % 0.00 in /  0 mm
06:47 34.8 °F /  1.6 °C 33.8 °F /  1 °C 29.61 in /  1002.6 hPa East 6.9 mph /  11.1 km/h 8.0 mph /  12.9 km/h 96 % 0.00 in /  0 mm
06:52 34.8 °F /  1.6 °C 33.8 °F /  1 °C 29.61 in /  1002.6 hPa East 7.2 mph /  11.6 km/h 10.4 mph /  16.7 km/h 96 % 0.00 in /  0 mm
06:57 34.9 °F /  1.6 °C 33.9 °F /  1.1 °C 29.61 in /  1002.6 hPa East 8.3 mph /  13.4 km/h 11.5 mph /  18.5 km/h 96 % 0.00 in /  0 mm
07:02 35.0 °F /  1.7 °C 34.0 °F /  1.1 °C 29.61 in /  1002.6 hPa East 10.2 mph /  16.4 km/h 11.0 mph /  17.7 km/h 96 % 0.00 in /  0 mm
07:08 35.0 °F /  1.7 °C 34.0 °F /  1.1 °C 29.61 in /  1002.6 hPa East 9.3 mph /  15 km/h 10.0 mph /  16.1 km/h 96 % 0.00 in /  0 mm
07:13 35.1 °F /  1.7 °C 34.1 °F /  1.2 °C 29.61 in /  1002.6 hPa East 10.4 mph /  16.7 km/h 14.0 mph /  22.5 km/h 96 % 0.00 in /  0 mm
07:18 35.2 °F /  1.8 °C 34.2 °F /  1.2 °C 29.60 in /  1002.3 hPa East 8.8 mph /  14.2 km/h 14.0 mph /  22.5 km/h 96 % 0.00 in /  0 mm
07:23 35.3 °F /  1.8 °C 34.3 °F /  1.3 °C 29.60 in /  1002.3 hPa East 9.2 mph /  14.8 km/h 16.1 mph /  25.9 km/h 96 % 0.00 in /  0 mm
07:28 35.3 °F /  1.8 °C 34.3 °F /  1.3 °C 29.60 in /  1002.3 hPa East 9.8 mph /  15.8 km/h 13.0 mph /  20.9 km/h 96 % 0.00 in /  0 mm
07:33 35.4 °F /  1.9 °C 34.4 °F /  1.3 °C 29.60 in /  1002.3 hPa East 9.3 mph /  15 km/h 13.0 mph /  20.9 km/h 96 % 0.00 in /  0 mm
07:38 35.5 °F /  1.9 °C 34.5 °F /  1.4 °C 29.59 in /  1001.9 hPa East 11.2 mph /  18 km/h 15.0 mph /  24.1 km/h 96 % 0.00 in /  0 mm
07:43 35.6 °F /  2 °C 34.6 °F /  1.4 °C 29.59 in /  1001.9 hPa East 9.1 mph /  14.6 km/h 13.8 mph /  22.2 km/h 96 % 0.00 in /  0 mm
07:48 35.7 °F /  2.1 °C 34.7 °F /  1.5 °C 29.58 in /  1001.6 hPa ENE 9.7 mph /  15.6 km/h 11.5 mph /  18.5 km/h 96 % 0.00 in /  0 mm
07:53 35.8 °F /  2.1 °C 34.8 °F /  1.6 °C 29.58 in /  1001.6 hPa East 10.6 mph /  17.1 km/h 14.0 mph /  22.5 km/h 96 % 0.00 in /  0 mm
07:58 35.9 °F /  2.2 °C 34.9 °F /  1.6 °C 29.57 in /  1001.2 hPa East 9.4 mph /  15.1 km/h 11.5 mph /  18.5 km/h 96 % 0.00 in /  0 mm
08:03 36.0 °F /  2.2 °C 35.0 °F /  1.7 °C 29.57 in /  1001.2 hPa East 12.3 mph /  19.8 km/h 15.0 mph /  24.1 km/h 96 % 0.00 in /  0 mm
08:08 36.0 °F /  2.2 °C 35.0 °F /  1.7 °C 29.57 in /  1001.2 hPa East 11.1 mph /  17.9 km/h 13.0 mph /  20.9 km/h 96 % 0.00 in /  0 mm
08:13 36.1 °F /  2.3 °C 35.1 °F /  1.7 °C 29.56 in /  1000.9 hPa ENE 9.5 mph /  15.3 km/h 13.0 mph /  20.9 km/h 96 % 0.00 in /  0 mm
08:18 36.2 °F /  2.3 °C 35.2 °F /  1.8 °C 29.56 in /  1000.9 hPa ENE 12.7 mph /  20.4 km/h 15.0 mph /  24.1 km/h 96 % 0.00 in /  0 mm
08:23 36.3 °F /  2.4 °C 35.3 °F /  1.8 °C 29.56 in /  1000.9 hPa East 10.6 mph /  17.1 km/h 15.0 mph /  24.1 km/h 96 % 0.00 in /  0 mm
08:28 36.4 °F /  2.4 °C 35.4 °F /  1.9 °C 29.56 in /  1000.9 hPa ENE 11.0 mph /  17.7 km/h 17.3 mph /  27.8 km/h 96 % 0.00 in /  0 mm
08:33 36.4 °F /  2.4 °C 35.1 °F /  1.7 °C 29.56 in /  1000.9 hPa East 12.9 mph /  20.8 km/h 16.1 mph /  25.9 km/h 95 % 0.00 in /  0 mm
08:38 36.4 °F /  2.4 °C 35.4 °F /  1.9 °C 29.55 in /  1000.6 hPa East 12.4 mph /  20 km/h 16.1 mph /  25.9 km/h 96 % 0.00 in /  0 mm
08:43 36.5 °F /  2.5 °C 35.5 °F /  1.9 °C 29.55 in /  1000.6 hPa East 10.8 mph /  17.4 km/h 15.0 mph /  24.1 km/h 96 % 0.00 in /  0 mm
08:49 36.6 °F /  2.6 °C 35.3 °F /  1.8 °C 29.55 in /  1000.6 hPa East 11.3 mph /  18.2 km/h 15.0 mph /  24.1 km/h 95 % 0.00 in /  0 mm
08:54 36.6 °F /  2.6 °C 35.3 °F /  1.8 °C 29.55 in /  1000.6 hPa East 12.3 mph /  19.8 km/h 17.3 mph /  27.8 km/h 95 % 0.00 in /  0 mm
08:59 36.7 °F /  2.6 °C 35.4 °F /  1.9 °C 29.55 in /  1000.6 hPa ENE 10.7 mph /  17.2 km/h 15.0 mph /  24.1 km/h 95 % 0.00 in /  0 mm
09:04 36.8 °F /  2.7 °C 35.5 °F /  1.9 °C 29.55 in /  1000.6 hPa East 11.5 mph /  18.5 km/h 15.0 mph /  24.1 km/h 95 % 0.00 in /  0 mm
09:09 36.8 °F /  2.7 °C 35.5 °F /  1.9 °C 29.55 in /  1000.6 hPa East 11.5 mph /  18.5 km/h 16.1 mph /  25.9 km/h 95 % 0.00 in /  0 mm
09:14 36.9 °F /  2.7 °C 35.6 °F /  2 °C 29.55 in /  1000.6 hPa East 10.9 mph /  17.5 km/h 15.0 mph /  24.1 km/h 95 % 0.00 in /  0 mm
09:19 37.0 °F /  2.8 °C 35.7 °F /  2.1 °C 29.54 in /  1000.2 hPa ENE 11.4 mph /  18.3 km/h 14.0 mph /  22.5 km/h 95 % 0.00 in /  0 mm
09:24 36.9 °F /  2.7 °C 35.3 °F /  1.8 °C 29.54 in /  1000.2 hPa East 12.0 mph /  19.3 km/h 17.3 mph /  27.8 km/h 94 % 0.00 in /  0 mm
09:29 36.8 °F /  2.7 °C 35.2 °F /  1.8 °C 29.54 in /  1000.2 hPa ENE 13.2 mph /  21.2 km/h 17.3 mph /  27.8 km/h 94 % 0.00 in /  0 mm
09:34 36.7 °F /  2.6 °C 35.1 °F /  1.7 °C 29.54 in /  1000.2 hPa East 12.8 mph /  20.6 km/h 16.1 mph /  25.9 km/h 94 % 0.00 in /  0 mm
09:39 36.7 °F /  2.6 °C 35.1 °F /  1.7 °C 29.54 in /  1000.2 hPa ENE 12.9 mph /  20.8 km/h 16.1 mph /  25.9 km/h 94 % 0.00 in /  0 mm
09:44 36.7 °F /  2.6 °C 35.4 °F /  1.9 °C 29.53 in /  999.9 hPa ENE 12.3 mph /  19.8 km/h 16.1 mph /  25.9 km/h 95 % 0.00 in /  0 mm
09:49 36.7 °F /  2.6 °C 35.4 °F /  1.9 °C 29.53 in /  999.9 hPa ENE 12.9 mph /  20.8 km/h 20.7 mph /  33.3 km/h 95 % 0.00 in /  0 mm
09:54 36.7 °F /  2.6 °C 35.4 °F /  1.9 °C 29.52 in /  999.5 hPa East 14.4 mph /  23.2 km/h 18.4 mph /  29.6 km/h 95 % 0.00 in /  0 mm
09:59 36.7 °F /  2.6 °C 35.4 °F /  1.9 °C 29.51 in /  999.2 hPa ENE 13.1 mph /  21.1 km/h 17.0 mph /  27.4 km/h 95 % 0.00 in /  0 mm
10:04 36.7 °F /  2.6 °C 35.4 °F /  1.9 °C 29.51 in /  999.2 hPa East 13.7 mph /  22 km/h 21.9 mph /  35.2 km/h 95 % 0.00 in /  0 mm
10:09 36.6 °F /  2.6 °C 35.3 °F /  1.8 °C 29.51 in /  999.2 hPa ENE 11.6 mph /  18.7 km/h 19.6 mph /  31.5 km/h 95 % 0.00 in /  0 mm
10:14 36.5 °F /  2.5 °C 35.2 °F /  1.8 °C 29.50 in /  998.9 hPa East 14.5 mph /  23.3 km/h 18.4 mph /  29.6 km/h 95 % 0.00 in /  0 mm
10:19 36.4 °F /  2.4 °C 35.1 °F /  1.7 °C 29.49 in /  998.5 hPa ENE 16.7 mph /  26.9 km/h 20.7 mph /  33.3 km/h 95 % 0.00 in /  0 mm
10:24 36.3 °F /  2.4 °C 35.0 °F /  1.7 °C 29.50 in /  998.9 hPa ENE 14.0 mph /  22.5 km/h 20.7 mph /  33.3 km/h 95 % 0.00 in /  0 mm
10:29 36.2 °F /  2.3 °C 34.9 °F /  1.6 °C 29.49 in /  998.5 hPa ENE 14.3 mph /  23 km/h 19.6 mph /  31.5 km/h 95 % 0.00 in /  0 mm
10:35 36.2 °F /  2.3 °C 34.9 °F /  1.6 °C 29.48 in /  998.2 hPa ENE 14.6 mph /  23.5 km/h 24.2 mph /  38.9 km/h 95 % 0.00 in /  0 mm
10:40 36.4 °F /  2.4 °C 35.4 °F /  1.9 °C 29.48 in /  998.2 hPa East 15.2 mph /  24.5 km/h 19.6 mph /  31.5 km/h 96 % 0.00 in /  0 mm
10:45 36.3 °F /  2.4 °C 35.3 °F /  1.8 °C 29.48 in /  998.2 hPa ENE 15.3 mph /  24.6 km/h 19.0 mph /  30.6 km/h 96 % 0.01 in /  0.25 mm
10:50 36.4 °F /  2.4 °C 35.4 °F /  1.9 °C 29.48 in /  998.2 hPa East 13.7 mph /  22 km/h 17.3 mph /  27.8 km/h 96 % 0.01 in /  0.25 mm
10:55 36.4 °F /  2.4 °C 35.4 °F /  1.9 °C 29.47 in /  997.9 hPa East 12.7 mph /  20.4 km/h 19.6 mph /  31.5 km/h 96 % 0.01 in /  0.25 mm
11:00 36.5 °F /  2.5 °C 35.5 °F /  1.9 °C 29.46 in /  997.5 hPa ENE 13.3 mph /  21.4 km/h 18.4 mph /  29.6 km/h 96 % 0.01 in /  0.25 mm
11:05 36.6 °F /  2.6 °C 35.6 °F /  2 °C 29.46 in /  997.5 hPa ENE 16.2 mph /  26.1 km/h 22.0 mph /  35.4 km/h 96 % 0.01 in /  0.25 mm
11:10 36.7 °F /  2.6 °C 35.7 °F /  2.1 °C 29.45 in /  997.2 hPa East 16.7 mph /  26.9 km/h 20.7 mph /  33.3 km/h 96 % 0.01 in /  0.25 mm
11:15 36.6 °F /  2.6 °C 35.6 °F /  2 °C 29.45 in /  997.2 hPa NE 18.1 mph /  29.1 km/h 23.0 mph /  37 km/h 96 % 0.01 in /  0.25 mm
11:20 36.7 °F /  2.6 °C 35.7 °F /  2.1 °C 29.45 in /  997.2 hPa ENE 13.9 mph /  22.4 km/h 21.0 mph /  33.8 km/h 96 % 0.01 in /  0.25 mm
11:25 36.6 °F /  2.6 °C 35.6 °F /  2 °C 29.45 in /  997.2 hPa ENE 14.4 mph /  23.2 km/h 24.2 mph /  38.9 km/h 96 % 0.01 in /  0.25 mm
11:30 36.6 °F /  2.6 °C 35.6 °F /  2 °C 29.44 in /  996.8 hPa ENE 17.4 mph /  28 km/h 25.0 mph /  40.2 km/h 96 % 0.02 in /  0.51 mm
11:35 36.5 °F /  2.5 °C 35.5 °F /  1.9 °C 29.43 in /  996.5 hPa East 16.8 mph /  27 km/h 24.2 mph /  38.9 km/h 96 % 0.02 in /  0.51 mm
11:40 36.5 °F /  2.5 °C 35.5 °F /  1.9 °C 29.43 in /  996.5 hPa East 16.0 mph /  25.7 km/h 23.0 mph /  37 km/h 96 % 0.01 in /  0.25 mm
11:45 36.4 °F /  2.4 °C 35.4 °F /  1.9 °C 29.43 in /  996.5 hPa East 16.3 mph /  26.2 km/h 23.0 mph /  37 km/h 96 % 0.01 in /  0.25 mm
11:50 36.4 °F /  2.4 °C 35.4 °F /  1.9 °C 29.43 in /  996.5 hPa ENE 18.7 mph /  30.1 km/h 24.2 mph /  38.9 km/h 96 % 0.01 in /  0.25 mm
11:55 36.4 °F /  2.4 °C 35.4 °F /  1.9 °C 29.42 in /  996.2 hPa East 15.7 mph /  25.3 km/h 19.6 mph /  31.5 km/h 96 % 0.02 in /  0.51 mm
12:00 36.3 °F /  2.4 °C 35.3 °F /  1.8 °C 29.42 in /  996.2 hPa East 16.1 mph /  25.9 km/h 21.9 mph /  35.2 km/h 96 % 0.02 in /  0.51 mm
12:05 36.1 °F /  2.3 °C 35.1 °F /  1.7 °C 29.42 in /  996.2 hPa East 13.6 mph /  21.9 km/h 18.4 mph /  29.6 km/h 96 % 0.02 in /  0.51 mm
12:10 35.8 °F /  2.1 °C 34.5 °F /  1.4 °C 29.41 in /  995.8 hPa ESE 15.3 mph /  24.6 km/h 24.2 mph /  38.9 km/h 95 % 0.03 in /  0.76 mm
12:15 35.4 °F /  1.9 °C 34.1 °F /  1.2 °C 29.41 in /  995.8 hPa East 17.3 mph /  27.8 km/h 26.5 mph /  42.6 km/h 95 % 0.04 in /  1.02 mm
12:20 35.1 °F /  1.7 °C 33.8 °F /  1 °C 29.40 in /  995.5 hPa ENE 19.0 mph /  30.6 km/h 23.0 mph /  37 km/h 95 % 0.05 in /  1.27 mm
12:26 34.9 °F /  1.6 °C 33.9 °F /  1.1 °C 29.40 in /  995.5 hPa ENE 15.0 mph /  24.1 km/h 21.0 mph /  33.8 km/h 96 % 0.01 in /  0.25 mm
12:31 34.7 °F /  1.5 °C 33.7 °F /  0.9 °C 29.39 in /  995.1 hPa ENE 15.0 mph /  24.1 km/h 25.0 mph /  40.2 km/h 96 % 0.00 in /  0 mm
12:36 34.6 °F /  1.4 °C 33.6 °F /  0.9 °C 29.39 in /  995.1 hPa ENE 15.0 mph /  24.1 km/h 24.0 mph /  38.6 km/h 96 % 0.00 in /  0 mm
12:41 34.6 °F /  1.4 °C 33.6 °F /  0.9 °C 29.38 in /  994.8 hPa ENE 20.0 mph /  32.2 km/h 26.0 mph /  41.8 km/h 96 % 0.00 in /  0 mm
12:46 34.5 °F /  1.4 °C 33.5 °F /  0.8 °C 29.37 in /  994.5 hPa ENE 21.0 mph /  33.8 km/h 31.0 mph /  49.9 km/h 96 % 0.00 in /  0 mm
12:51 34.4 °F /  1.3 °C 33.4 °F /  0.8 °C 29.36 in /  994.1 hPa ENE 16.0 mph /  25.7 km/h 24.0 mph /  38.6 km/h 96 % 0.00 in /  0 mm
12:56 34.3 °F /  1.3 °C 33.3 °F /  0.7 °C 29.36 in /  994.1 hPa ENE 14.0 mph /  22.5 km/h 22.0 mph /  35.4 km/h 96 % 0.00 in /  0 mm
13:01 34.1 °F /  1.2 °C 33.1 °F /  0.6 °C 29.36 in /  994.1 hPa ENE 14.6 mph /  23.5 km/h 18.4 mph /  29.6 km/h 96 % 0.07 in /  1.78 mm
13:06 34.1 °F /  1.2 °C 33.1 °F /  0.6 °C 29.35 in /  993.8 hPa ENE 15.1 mph /  24.3 km/h 20.0 mph /  32.2 km/h 96 % 0.07 in /  1.78 mm
13:11 34.0 °F /  1.1 °C 33.0 °F /  0.6 °C 29.34 in /  993.5 hPa ENE 14.7 mph /  23.7 km/h 23.0 mph /  37 km/h 96 % 0.05 in /  1.27 mm
13:16 33.9 °F /  1.1 °C 32.9 °F /  0.5 °C 29.34 in /  993.5 hPa ENE 10.5 mph /  16.9 km/h 16.1 mph /  25.9 km/h 96 % 0.06 in /  1.52 mm
13:21 33.8 °F /  1 °C 32.8 °F /  0.4 °C 29.34 in /  993.5 hPa ENE 12.6 mph /  20.3 km/h 20.7 mph /  33.3 km/h 96 % 0.05 in /  1.27 mm
13:26 33.7 °F /  0.9 °C 32.7 °F /  0.4 °C 29.34 in /  993.5 hPa ENE 12.0 mph /  19.3 km/h 17.3 mph /  27.8 km/h 96 % 0.05 in /  1.27 mm
13:31 33.6 °F /  0.9 °C 32.6 °F /  0.3 °C 29.33 in /  993.1 hPa NE 4.3 mph /  6.9 km/h 5.8 mph /  9.3 km/h 96 % 0.05 in /  1.27 mm
13:36 33.5 °F /  0.8 °C 32.5 °F /  0.3 °C 29.33 in /  993.1 hPa ENE 7.1 mph /  11.4 km/h 12.0 mph /  19.3 km/h 96 % 0.06 in /  1.52 mm
13:41 33.5 °F /  0.8 °C 32.5 °F /  0.3 °C 29.33 in /  993.1 hPa NNE 7.6 mph /  12.2 km/h 13.8 mph /  22.2 km/h 96 % 0.05 in /  1.27 mm
13:46 33.4 °F /  0.8 °C 32.4 °F /  0.2 °C 29.32 in /  992.8 hPa North 7.2 mph /  11.6 km/h 13.8 mph /  22.2 km/h 96 % 0.06 in /  1.52 mm
13:51 33.4 °F /  0.8 °C 32.4 °F /  0.2 °C 29.32 in /  992.8 hPa NNE 8.2 mph /  13.2 km/h 16.1 mph /  25.9 km/h 96 % 0.05 in /  1.27 mm
13:56 33.4 °F /  0.8 °C 32.4 °F /  0.2 °C 29.32 in /  992.8 hPa NNE 9.6 mph /  15.4 km/h 16.1 mph /  25.9 km/h 96 % 0.06 in /  1.52 mm
14:01 33.4 °F /  0.8 °C 32.6 °F /  0.3 °C 29.32 in /  992.8 hPa NNE 9.6 mph /  15.4 km/h 15.0 mph /  24.1 km/h 97 % 0.05 in /  1.27 mm
14:06 33.5 °F /  0.8 °C 32.7 °F /  0.4 °C 29.32 in /  992.8 hPa NE 8.5 mph /  13.7 km/h 16.0 mph /  25.7 km/h 97 % 0.05 in /  1.27 mm
14:11 33.5 °F /  0.8 °C 32.7 °F /  0.4 °C 29.32 in /  992.8 hPa NE 9.2 mph /  14.8 km/h 12.7 mph /  20.4 km/h 97 % 0.06 in /  1.52 mm
14:16 33.4 °F /  0.8 °C 32.6 °F /  0.3 °C 29.31 in /  992.4 hPa NE 11.1 mph /  17.9 km/h 16.1 mph /  25.9 km/h 97 % 0.05 in /  1.27 mm
14:21 33.4 °F /  0.8 °C 32.6 °F /  0.3 °C 29.31 in /  992.4 hPa NE 9.5 mph /  15.3 km/h 12.0 mph /  19.3 km/h 97 % 0.05 in /  1.27 mm
14:26 33.4 °F /  0.8 °C 32.6 °F /  0.3 °C 29.30 in /  992.1 hPa NE 8.6 mph /  13.8 km/h 12.7 mph /  20.4 km/h 97 % 0.05 in /  1.27 mm
14:31 33.3 °F /  0.7 °C 32.5 °F /  0.3 °C 29.30 in /  992.1 hPa North 8.4 mph /  13.5 km/h 13.8 mph /  22.2 km/h 97 % 0.05 in /  1.27 mm
14:36 33.3 °F /  0.7 °C 32.5 °F /  0.3 °C 29.30 in /  992.1 hPa NE 7.6 mph /  12.2 km/h 8.1 mph /  13 km/h 97 % 0.05 in /  1.27 mm
14:42 33.3 °F /  0.7 °C 32.5 °F /  0.3 °C 29.29 in /  991.8 hPa NNE 7.5 mph /  12.1 km/h 15.0 mph /  24.1 km/h 97 % 0.05 in /  1.27 mm
14:47 33.4 °F /  0.8 °C 32.6 °F /  0.3 °C 29.28 in /  991.4 hPa NE 6.6 mph /  10.6 km/h 11.5 mph /  18.5 km/h 97 % 0.05 in /  1.27 mm
14:52 33.4 °F /  0.8 °C 32.6 °F /  0.3 °C 29.27 in /  991.1 hPa NNE 9.3 mph /  15 km/h 19.6 mph /  31.5 km/h 97 % 0.05 in /  1.27 mm
14:57 33.4 °F /  0.8 °C 32.6 °F /  0.3 °C 29.27 in /  991.1 hPa NNE 7.7 mph /  12.4 km/h 11.5 mph /  18.5 km/h 97 % 0.05 in /  1.27 mm
15:01 33.5 °F /  0.8 °C 32.7 °F /  0.4 °C 29.27 in /  991.1 hPa NNE 7.9 mph /  12.7 km/h 12.0 mph /  19.3 km/h 97 % 0.05 in /  1.27 mm
15:06 33.5 °F /  0.8 °C 32.7 °F /  0.4 °C 29.26 in /  990.7 hPa NE 7.8 mph /  12.6 km/h 12.7 mph /  20.4 km/h 97 % 0.06 in /  1.52 mm
15:11 33.6 °F /  0.9 °C 32.8 °F /  0.4 °C 29.26 in /  990.7 hPa NE 9.0 mph /  14.5 km/h 18.0 mph /  29 km/h 97 % 0.00 in /  0 mm
15:16 33.6 °F /  0.9 °C 32.8 °F /  0.4 °C 29.26 in /  990.7 hPa NNE 9.3 mph /  15 km/h 20.7 mph /  33.3 km/h 97 % 0.06 in /  1.52 mm
15:21 33.6 °F /  0.9 °C 32.8 °F /  0.4 °C 29.26 in /  990.7 hPa NNE 8.5 mph /  13.7 km/h 16.1 mph /  25.9 km/h 97 % 0.06 in /  1.52 mm
15:26 33.6 °F /  0.9 °C 32.8 °F /  0.4 °C 29.25 in /  990.4 hPa ENE 8.2 mph /  13.2 km/h 13.8 mph /  22.2 km/h 97 % 0.06 in /  1.52 mm
15:31 33.6 °F /  0.9 °C 32.8 °F /  0.4 °C 29.25 in /  990.4 hPa NNE 10.7 mph /  17.2 km/h 18.4 mph /  29.6 km/h 97 % 0.07 in /  1.78 mm
15:36 33.6 °F /  0.9 °C 32.8 °F /  0.4 °C 29.25 in /  990.4 hPa NE 9.5 mph /  15.3 km/h 15.0 mph /  24.1 km/h 97 % 0.06 in /  1.52 mm
15:41 33.6 °F /  0.9 °C 32.8 °F /  0.4 °C 29.25 in /  990.4 hPa NE 9.1 mph /  14.6 km/h 12.0 mph /  19.3 km/h 97 % 0.07 in /  1.78 mm
15:47 33.6 °F /  0.9 °C 32.8 °F /  0.4 °C 29.24 in /  990.1 hPa NNE 10.5 mph /  16.9 km/h 16.1 mph /  25.9 km/h 97 % 0.06 in /  1.52 mm
15:52 33.5 °F /  0.8 °C 32.7 °F /  0.4 °C 29.24 in /  990.1 hPa NE 9.5 mph /  15.3 km/h 16.1 mph /  25.9 km/h 97 % 0.07 in /  1.78 mm
15:57 33.5 °F /  0.8 °C 32.7 °F /  0.4 °C 29.24 in /  990.1 hPa NNE 10.0 mph /  16.1 km/h 15.0 mph /  24.1 km/h 97 % 0.06 in /  1.52 mm
16:02 33.5 °F /  0.8 °C 32.7 °F /  0.4 °C 29.24 in /  990.1 hPa NNE 7.5 mph /  12.1 km/h 11.5 mph /  18.5 km/h 97 % 0.07 in /  1.78 mm
16:07 33.4 °F /  0.8 °C 32.6 °F /  0.3 °C 29.24 in /  990.1 hPa NNE 10.8 mph /  17.4 km/h 17.3 mph /  27.8 km/h 97 % 0.06 in /  1.52 mm
16:12 33.4 °F /  0.8 °C 32.6 °F /  0.3 °C 29.25 in /  990.4 hPa NNE 8.6 mph /  13.8 km/h 16.1 mph /  25.9 km/h 97 % 0.06 in /  1.52 mm
16:17 33.4 °F /  0.8 °C 32.6 °F /  0.3 °C 29.25 in /  990.4 hPa NE 10.6 mph /  17.1 km/h 17.3 mph /  27.8 km/h 97 % 0.06 in /  1.52 mm
16:22 33.4 °F /  0.8 °C 32.6 °F /  0.3 °C 29.25 in /  990.4 hPa NNE 11.7 mph /  18.8 km/h 18.4 mph /  29.6 km/h 97 % 0.05 in /  1.27 mm
16:27 33.4 °F /  0.8 °C 32.6 °F /  0.3 °C 29.26 in /  990.7 hPa NNE 11.4 mph /  18.3 km/h 15.0 mph /  24.1 km/h 97 % 0.06 in /  1.52 mm
16:32 33.4 °F /  0.8 °C 32.6 °F /  0.3 °C 29.26 in /  990.7 hPa NNE 11.3 mph /  18.2 km/h 15.0 mph /  24.1 km/h 97 % 0.05 in /  1.27 mm
16:37 33.3 °F /  0.7 °C 32.5 °F /  0.3 °C 29.26 in /  990.7 hPa NNE 12.3 mph /  19.8 km/h 16.0 mph /  25.7 km/h 97 % 0.05 in /  1.27 mm
16:43 33.2 °F /  0.7 °C 32.4 °F /  0.2 °C 29.27 in /  991.1 hPa NNE 7.9 mph /  12.7 km/h 16.1 mph /  25.9 km/h 97 % 0.05 in /  1.27 mm
16:48 33.1 °F /  0.6 °C 32.3 °F /  0.2 °C 29.28 in /  991.4 hPa North 13.5 mph /  21.7 km/h 19.6 mph /  31.5 km/h 97 % 0.06 in /  1.52 mm
16:53 33.1 °F /  0.6 °C 32.3 °F /  0.2 °C 29.28 in /  991.4 hPa NNE 9.4 mph /  15.1 km/h 12.7 mph /  20.4 km/h 97 % 0.05 in /  1.27 mm
16:58 33.0 °F /  0.6 °C 32.2 °F /  0.1 °C 29.29 in /  991.8 hPa North 8.9 mph /  14.3 km/h 12.7 mph /  20.4 km/h 97 % 0.05 in /  1.27 mm
17:03 33.0 °F /  0.6 °C 32.2 °F /  0.1 °C 29.29 in /  991.8 hPa NNE 9.5 mph /  15.3 km/h 17.3 mph /  27.8 km/h 97 % 0.05 in /  1.27 mm
17:08 33.0 °F /  0.6 °C 32.2 °F /  0.1 °C 29.28 in /  991.4 hPa NNW 7.4 mph /  11.9 km/h 10.0 mph /  16.1 km/h 97 % 0.06 in /  1.52 mm
17:13 32.9 °F /  0.5 °C 32.1 °F /  0.1 °C 29.27 in /  991.1 hPa NNE 9.8 mph /  15.8 km/h 15.0 mph /  24.1 km/h 97 % 0.06 in /  1.52 mm
17:18 32.9 °F /  0.5 °C 32.1 °F /  0.1 °C 29.26 in /  990.7 hPa North 9.9 mph /  15.9 km/h 18.4 mph /  29.6 km/h 97 % 0.06 in /  1.52 mm
17:23 32.9 °F /  0.5 °C 32.1 °F /  0.1 °C 29.27 in /  991.1 hPa NNE 9.6 mph /  15.4 km/h 13.0 mph /  20.9 km/h 97 % 0.07 in /  1.78 mm
17:28 32.9 °F /  0.5 °C 32.1 °F /  0.1 °C 29.27 in /  991.1 hPa North 7.5 mph /  12.1 km/h 11.5 mph /  18.5 km/h 97 % 0.07 in /  1.78 mm
17:33 32.9 °F /  0.5 °C 32.1 °F /  0.1 °C 29.26 in /  990.7 hPa NNE 7.2 mph /  11.6 km/h 11.5 mph /  18.5 km/h 97 % 0.08 in /  2.03 mm
17:38 32.9 °F /  0.5 °C 32.1 °F /  0.1 °C 29.26 in /  990.7 hPa NNE 5.4 mph /  8.7 km/h 9.2 mph /  14.8 km/h 97 % 0.08 in /  2.03 mm
17:43 32.9 °F /  0.5 °C 32.1 °F /  0.1 °C 29.26 in /  990.7 hPa North 7.9 mph /  12.7 km/h 13.8 mph /  22.2 km/h 97 % 0.09 in /  2.29 mm
17:48 33.0 °F /  0.6 °C 32.2 °F /  0.1 °C 29.26 in /  990.7 hPa NNE 10.1 mph /  16.3 km/h 15.0 mph /  24.1 km/h 97 % 0.08 in /  2.03 mm
17:53 33.0 °F /  0.6 °C 32.2 °F /  0.1 °C 29.26 in /  990.7 hPa North 9.9 mph /  15.9 km/h 19.6 mph /  31.5 km/h 97 % 0.09 in /  2.29 mm
17:58 33.0 °F /  0.6 °C 32.2 °F /  0.1 °C 29.25 in /  990.4 hPa North 9.0 mph /  14.5 km/h 11.5 mph /  18.5 km/h 97 % 0.09 in /  2.29 mm
18:03 33.1 °F /  0.6 °C 32.3 °F /  0.2 °C 29.26 in /  990.7 hPa NNE 9.8 mph /  15.8 km/h 15.0 mph /  24.1 km/h 97 % 0.09 in /  2.29 mm
18:09 33.1 °F /  0.6 °C 32.3 °F /  0.2 °C 29.26 in /  990.7 hPa NNW 6.9 mph /  11.1 km/h 11.5 mph /  18.5 km/h 97 % 0.09 in /  2.29 mm
18:14 33.1 °F /  0.6 °C 32.3 °F /  0.2 °C 29.27 in /  991.1 hPa NNE 9.7 mph /  15.6 km/h 13.8 mph /  22.2 km/h 97 % 0.09 in /  2.29 mm
18:19 33.1 °F /  0.6 °C 32.3 °F /  0.2 °C 29.27 in /  991.1 hPa North 7.6 mph /  12.2 km/h 12.0 mph /  19.3 km/h 97 % 0.08 in /  2.03 mm
18:24 33.0 °F /  0.6 °C 32.2 °F /  0.1 °C 29.27 in /  991.1 hPa NNE 7.4 mph /  11.9 km/h 11.5 mph /  18.5 km/h 97 % 0.09 in /  2.29 mm
18:29 33.0 °F /  0.6 °C 32.2 °F /  0.1 °C 29.27 in /  991.1 hPa NNW 8.4 mph /  13.5 km/h 15.0 mph /  24.1 km/h 97 % 0.09 in /  2.29 mm
18:34 33.0 °F /  0.6 °C 32.2 °F /  0.1 °C 29.26 in /  990.7 hPa NNE 9.3 mph /  15 km/h 12.7 mph /  20.4 km/h 97 % 0.08 in /  2.03 mm
18:39 33.0 °F /  0.6 °C 32.2 °F /  0.1 °C 29.27 in /  991.1 hPa NNE 8.9 mph /  14.3 km/h 13.8 mph /  22.2 km/h 97 % 0.08 in /  2.03 mm
18:44 33.0 °F /  0.6 °C 32.2 °F /  0.1 °C 29.27 in /  991.1 hPa NNW 7.8 mph /  12.6 km/h 11.5 mph /  18.5 km/h 97 % 0.08 in /  2.03 mm
18:49 33.0 °F /  0.6 °C 32.2 °F /  0.1 °C 29.28 in /  991.4 hPa NW 9.5 mph /  15.3 km/h 12.7 mph /  20.4 km/h 97 % 0.08 in /  2.03 mm
18:54 33.0 °F /  0.6 °C 32.2 °F /  0.1 °C 29.28 in /  991.4 hPa North 6.3 mph /  10.1 km/h 11.5 mph /  18.5 km/h 97 % 0.08 in /  2.03 mm
18:59 33.0 °F /  0.6 °C 32.2 °F /  0.1 °C 29.28 in /  991.4 hPa NNE 7.4 mph /  11.9 km/h 11.5 mph /  18.5 km/h 97 % 0.08 in /  2.03 mm
19:04 33.1 °F /  0.6 °C 32.3 °F /  0.2 °C 29.29 in /  991.8 hPa North 7.7 mph /  12.4 km/h 11.5 mph /  18.5 km/h 97 % 0.08 in /  2.03 mm
19:09 33.2 °F /  0.7 °C 32.7 °F /  0.4 °C 29.29 in /  991.8 hPa NNE 8.1 mph /  13 km/h 12.7 mph /  20.4 km/h 98 % 0.08 in /  2.03 mm
19:14 33.3 °F /  0.7 °C 32.8 °F /  0.4 °C 29.30 in /  992.1 hPa North 7.3 mph /  11.7 km/h 12.7 mph /  20.4 km/h 98 % 0.08 in /  2.03 mm
19:19 33.3 °F /  0.7 °C 32.8 °F /  0.4 °C 29.30 in /  992.1 hPa North 7.8 mph /  12.6 km/h 10.4 mph /  16.7 km/h 98 % 0.09 in /  2.29 mm
19:24 33.4 °F /  0.8 °C 32.9 °F /  0.5 °C 29.30 in /  992.1 hPa NNE 8.0 mph /  12.9 km/h 11.5 mph /  18.5 km/h 98 % 0.09 in /  2.29 mm
19:29 33.5 °F /  0.8 °C 32.7 °F /  0.4 °C 29.30 in /  992.1 hPa NNE 7.1 mph /  11.4 km/h 9.0 mph /  14.5 km/h 97 % 0.09 in /  2.29 mm
19:34 33.5 °F /  0.8 °C 32.7 °F /  0.4 °C 29.31 in /  992.4 hPa NNE 3.5 mph /  5.6 km/h 8.1 mph /  13 km/h 97 % 0.09 in /  2.29 mm
19:39 33.5 °F /  0.8 °C 33.0 °F /  0.6 °C 29.31 in /  992.4 hPa North 5.5 mph /  8.9 km/h 15.0 mph /  24.1 km/h 98 % 0.09 in /  2.29 mm
19:44 33.6 °F /  0.9 °C 33.1 °F /  0.6 °C 29.32 in /  992.8 hPa NNE 8.2 mph /  13.2 km/h 11.5 mph /  18.5 km/h 98 % 0.09 in /  2.29 mm
19:49 33.6 °F /  0.9 °C 33.1 °F /  0.6 °C 29.32 in /  992.8 hPa North 7.4 mph /  11.9 km/h 11.5 mph /  18.5 km/h 98 % 0.10 in /  2.54 mm
19:55 33.7 °F /  0.9 °C 33.2 °F /  0.7 °C 29.32 in /  992.8 hPa NNW 7.7 mph /  12.4 km/h 13.8 mph /  22.2 km/h 98 % 0.10 in /  2.54 mm
20:00 33.8 °F /  1 °C 33.3 °F /  0.7 °C 29.32 in /  992.8 hPa North 7.4 mph /  11.9 km/h 16.1 mph /  25.9 km/h 98 % 0.10 in /  2.54 mm
20:05 33.9 °F /  1.1 °C 33.1 °F /  0.6 °C 29.32 in /  992.8 hPa North 5.8 mph /  9.3 km/h 12.7 mph /  20.4 km/h 97 % 0.10 in /  2.54 mm
20:10 34.0 °F /  1.1 °C 33.2 °F /  0.7 °C 29.32 in /  992.8 hPa NW 5.4 mph /  8.7 km/h 11.5 mph /  18.5 km/h 97 % 0.10 in /  2.54 mm
20:15 34.0 °F /  1.1 °C 33.2 °F /  0.7 °C 29.32 in /  992.8 hPa NNW 5.6 mph /  9 km/h 13.0 mph /  20.9 km/h 97 % 0.11 in /  2.79 mm
20:20 34.1 °F /  1.2 °C 33.3 °F /  0.7 °C 29.32 in /  992.8 hPa NNW 11.1 mph /  17.9 km/h 19.6 mph /  31.5 km/h 97 % 0.11 in /  2.79 mm
20:25 34.2 °F /  1.2 °C 33.7 °F /  0.9 °C 29.32 in /  992.8 hPa NNW 6.0 mph /  9.7 km/h 11.5 mph /  18.5 km/h 98 % 0.10 in /  2.54 mm
20:30 34.4 °F /  1.3 °C 33.9 °F /  1.1 °C 29.32 in /  992.8 hPa NNW 9.2 mph /  14.8 km/h 13.8 mph /  22.2 km/h 98 % 0.10 in /  2.54 mm
20:35 34.5 °F /  1.4 °C 34.0 °F /  1.1 °C 29.32 in /  992.8 hPa NNW 8.7 mph /  14 km/h 18.4 mph /  29.6 km/h 98 % 0.11 in /  2.79 mm
20:40 34.6 °F /  1.4 °C 33.8 °F /  1 °C 29.32 in /  992.8 hPa NNW 6.5 mph /  10.5 km/h 16.0 mph /  25.7 km/h 97 % 0.11 in /  2.79 mm
20:45 34.8 °F /  1.6 °C 34.3 °F /  1.3 °C 29.32 in /  992.8 hPa NE 6.8 mph /  10.9 km/h 11.5 mph /  18.5 km/h 98 % 0.11 in /  2.79 mm
20:50 35.0 °F /  1.7 °C 34.5 °F /  1.4 °C 29.32 in /  992.8 hPa North 12.3 mph /  19.8 km/h 24.0 mph /  38.6 km/h 98 % 0.11 in /  2.79 mm
20:55 35.1 °F /  1.7 °C 34.3 °F /  1.3 °C 29.32 in /  992.8 hPa NNW 8.5 mph /  13.7 km/h 18.4 mph /  29.6 km/h 97 % 0.11 in /  2.79 mm
21:00 35.3 °F /  1.8 °C 34.8 °F /  1.6 °C 29.32 in /  992.8 hPa NNE 15.2 mph /  24.5 km/h 24.0 mph /  38.6 km/h 98 % 0.10 in /  2.54 mm
21:05 35.6 °F /  2 °C 35.1 °F /  1.7 °C 29.32 in /  992.8 hPa NE 13.6 mph /  21.9 km/h 21.9 mph /  35.2 km/h 98 % 0.10 in /  2.54 mm
21:10 35.7 °F /  2.1 °C 34.9 °F /  1.6 °C 29.32 in /  992.8 hPa North 11.2 mph /  18 km/h 19.6 mph /  31.5 km/h 97 % 0.09 in /  2.29 mm
21:16 35.8 °F /  2.1 °C 35.3 °F /  1.8 °C 29.32 in /  992.8 hPa NE 11.7 mph /  18.8 km/h 17.3 mph /  27.8 km/h 98 % 0.09 in /  2.29 mm
21:21 35.9 °F /  2.2 °C 35.1 °F /  1.7 °C 29.32 in /  992.8 hPa North 16.4 mph /  26.4 km/h 23.0 mph /  37 km/h 97 % 0.08 in /  2.03 mm
21:26 36.0 °F /  2.2 °C 35.2 °F /  1.8 °C 29.31 in /  992.4 hPa North 14.0 mph /  22.5 km/h 24.0 mph /  38.6 km/h 97 % 0.00 in /  0 mm
21:31 36.0 °F /  2.2 °C 35.2 °F /  1.8 °C 29.30 in /  992.1 hPa North 14.0 mph /  22.5 km/h 26.0 mph /  41.8 km/h 97 % 0.00 in /  0 mm
21:36 36.0 °F /  2.2 °C 35.2 °F /  1.8 °C 29.31 in /  992.4 hPa NNE 14.0 mph /  22.5 km/h 26.0 mph /  41.8 km/h 97 % 0.00 in /  0 mm
21:41 36.0 °F /  2.2 °C 35.2 °F /  1.8 °C 29.31 in /  992.4 hPa NNW 13.2 mph /  21.2 km/h 26.5 mph /  42.6 km/h 97 % 0.07 in /  1.78 mm
21:46 36.0 °F /  2.2 °C 35.2 °F /  1.8 °C 29.31 in /  992.4 hPa North 8.0 mph /  12.9 km/h 21.0 mph /  33.8 km/h 97 % 0.00 in /  0 mm
21:51 36.1 °F /  2.3 °C 35.3 °F /  1.8 °C 29.31 in /  992.4 hPa North 14.0 mph /  22.5 km/h 25.0 mph /  40.2 km/h 97 % 0.00 in /  0 mm
21:56 36.1 °F /  2.3 °C 35.3 °F /  1.8 °C 29.31 in /  992.4 hPa NNE 12.0 mph /  19.3 km/h 25.0 mph /  40.2 km/h 97 % 0.01 in /  0.25 mm
22:01 36.1 °F /  2.3 °C 35.3 °F /  1.8 °C 29.31 in /  992.4 hPa North 8.0 mph /  12.9 km/h 12.7 mph /  20.4 km/h 97 % 0.05 in /  1.27 mm
22:06 36.1 °F /  2.3 °C 35.3 °F /  1.8 °C 29.31 in /  992.4 hPa North 9.5 mph /  15.3 km/h 12.7 mph /  20.4 km/h 97 % 0.04 in /  1.02 mm
22:11 36.0 °F /  2.2 °C 35.0 °F /  1.7 °C 29.31 in /  992.4 hPa NNW 6.6 mph /  10.6 km/h 13.8 mph /  22.2 km/h 96 % 0.04 in /  1.02 mm
22:16 36.0 °F /  2.2 °C 35.0 °F /  1.7 °C 29.32 in /  992.8 hPa North 5.8 mph /  9.3 km/h 15.0 mph /  24.1 km/h 96 % 0.03 in /  0.76 mm
22:21 36.1 °F /  2.3 °C 35.1 °F /  1.7 °C 29.32 in /  992.8 hPa NNW 10.2 mph /  16.4 km/h 16.0 mph /  25.7 km/h 96 % 0.02 in /  0.51 mm
22:26 36.0 °F /  2.2 °C 35.0 °F /  1.7 °C 29.32 in /  992.8 hPa NNW 6.4 mph /  10.3 km/h 11.5 mph /  18.5 km/h 96 % 0.02 in /  0.51 mm
22:31 35.9 °F /  2.2 °C 34.9 °F /  1.6 °C 29.33 in /  993.1 hPa NNW 7.6 mph /  12.2 km/h 10.4 mph /  16.7 km/h 96 % 0.03 in /  0.76 mm
22:36 35.8 °F /  2.1 °C 34.8 °F /  1.6 °C 29.33 in /  993.1 hPa NNW 4.7 mph /  7.6 km/h 13.8 mph /  22.2 km/h 96 % 0.02 in /  0.51 mm
22:41 35.7 °F /  2.1 °C 34.7 °F /  1.5 °C 29.34 in /  993.5 hPa NNW 4.7 mph /  7.6 km/h 11.5 mph /  18.5 km/h 96 % 0.03 in /  0.76 mm
22:46 35.7 °F /  2.1 °C 34.7 °F /  1.5 °C 29.34 in /  993.5 hPa WNW 4.3 mph /  6.9 km/h 9.2 mph /  14.8 km/h 96 % 0.03 in /  0.76 mm
22:51 35.7 °F /  2.1 °C 34.7 °F /  1.5 °C 29.34 in /  993.5 hPa West 2.9 mph /  4.7 km/h 6.0 mph /  9.7 km/h 96 % 0.04 in /  1.02 mm
22:56 35.6 °F /  2 °C 34.6 °F /  1.4 °C 29.34 in /  993.5 hPa NW 3.9 mph /  6.3 km/h 11.0 mph /  17.7 km/h 96 % 0.03 in /  0.76 mm
23:01 35.4 °F /  1.9 °C 34.4 °F /  1.3 °C 29.34 in /  993.5 hPa NW 6.3 mph /  10.1 km/h 13.0 mph /  20.9 km/h 96 % 0.03 in /  0.76 mm
23:06 35.1 °F /  1.7 °C 34.1 °F /  1.2 °C 29.34 in /  993.5 hPa West 4.9 mph /  7.9 km/h 12.7 mph /  20.4 km/h 96 % 0.03 in /  0.76 mm
23:11 34.8 °F /  1.6 °C 33.8 °F /  1 °C 29.35 in /  993.8 hPa West 6.7 mph /  10.8 km/h 11.5 mph /  18.5 km/h 96 % 0.04 in /  1.02 mm
23:16 34.6 °F /  1.4 °C 33.6 °F /  0.9 °C 29.34 in /  993.5 hPa WNW 5.1 mph /  8.2 km/h 13.0 mph /  20.9 km/h 96 % 0.04 in /  1.02 mm
23:21 34.4 °F /  1.3 °C 33.4 °F /  0.8 °C 29.35 in /  993.8 hPa West 5.8 mph /  9.3 km/h 13.8 mph /  22.2 km/h 96 % 0.04 in /  1.02 mm
23:26 34.3 °F /  1.3 °C 33.3 °F /  0.7 °C 29.35 in /  993.8 hPa NW 7.1 mph /  11.4 km/h 10.4 mph /  16.7 km/h 96 % 0.05 in /  1.27 mm
23:31 34.2 °F /  1.2 °C 33.2 °F /  0.7 °C 29.35 in /  993.8 hPa WNW 6.6 mph /  10.6 km/h 11.5 mph /  18.5 km/h 96 % 0.04 in /  1.02 mm
23:37 34.1 °F /  1.2 °C 33.1 °F /  0.6 °C 29.35 in /  993.8 hPa NW 5.5 mph /  8.9 km/h 13.8 mph /  22.2 km/h 96 % 0.04 in /  1.02 mm
23:42 34.0 °F /  1.1 °C 33.0 °F /  0.6 °C 29.36 in /  994.1 hPa WNW 7.4 mph /  11.9 km/h 11.5 mph /  18.5 km/h 96 % 0.03 in /  0.76 mm
23:47 34.0 °F /  1.1 °C 33.0 °F /  0.6 °C 29.36 in /  994.1 hPa West 7.3 mph /  11.7 km/h 11.5 mph /  18.5 km/h 96 % 0.02 in /  0.51 mm
23:52 33.9 °F /  1.1 °C 32.9 °F /  0.5 °C 29.37 in /  994.5 hPa NW 3.8 mph /  6.1 km/h 11.5 mph /  18.5 km/h 96 % 0.03 in /  0.76 mm
23:57 33.9 °F /  1.1 °C 32.9 °F /  0.5 °C 29.37 in /  994.5 hPa NW 5.1 mph /  8.2 km/h 11.5 mph /  18.5 km/h 96 % 0.03 in /  0.76 mm
Crab Meadow Weather
Compliments of Weather Underground - 3 mb

Script developed by  Jim McMurry - jmcmurry@mwt.net Adapted for the template by  Wim van der Kuil - Leuven-Template.eu

Weather Terms: Flood Watch - Conditions are favorable for flash flooding in and close to the watch area. These watches are issued by the Weather Forecast Office in Upton and are usually for the first 12 to 24 hours of a forecast.